Grand Ruby — 3EIU3 — position and weather

sailwx.info

Track history (hours):
 
Tides and Currents Weather Stations Pressure Air Temp Water Temp Dewpoint Dewpoint Depression Visibility Wind Speed Wind Dir Waves Ship Positions

Grand Ruby

Last reported at 2016-Jan-27 01:34 UTC. Time now 2016-Feb-14 01:45 UTC.
Position N 38°51' W 076°24'.
Warning: this ship's position is 18 days out of date.

Length 200 m; draft 8.9 m.

Type: Cargo ship. MMSI: 372399000.

Date/timePositionNaut miles runAvg speedWind from/ knotsBaromVisibWave heightAir tempDewpointWater temp
2016-Jan-27 01:34N 38°51' W 076°24'1414.1
2016-Jan-27 00:33N 39°05' W 076°24'1111.1
2016-Jan-26 23:33N 39°14' W 076°32'1 1.1
2016-Jan-26 22:33N 39°15' W 076°32'0 0.0
2016-Jan-26 21:33N 39°15' W 076°32'0 0.0
2016-Jan-26 20:33N 39°15' W 076°32'0 0.0
2016-Jan-26 19:33N 39°15' W 076°32'0 0.0
2016-Jan-26 18:33N 39°15' W 076°32'0 0.0
2016-Jan-26 17:33N 39°15' W 076°32'0 0.0
2016-Jan-26 16:33N 39°15' W 076°32'0 0.0
2016-Jan-26 15:33N 39°15' W 076°32'0 0.0
2016-Jan-26 14:33N 39°15' W 076°32'0 0.0
2016-Jan-26 13:33N 39°15' W 076°32'0 0.0
2016-Jan-26 12:33N 39°15' W 076°32'0 0.0
2016-Jan-26 11:33N 39°15' W 076°32'0 0.0
2016-Jan-26 10:33N 39°15' W 076°32'0 0.0
2016-Jan-26 09:33N 39°15' W 076°32'0 0.0
2016-Jan-26 08:33N 39°15' W 076°32'0 0.0
2016-Jan-26 07:33N 39°15' W 076°32'0 0.0
2016-Jan-26 06:33N 39°15' W 076°32'0 0.0
2016-Jan-26 05:33N 39°15' W 076°32'0 0.0
2016-Jan-26 04:33N 39°15' W 076°32'0 0.0
2016-Jan-26 03:33N 39°15' W 076°32'0 0.0
2016-Jan-26 02:33N 39°15' W 076°32'1 1.5
2016-Jan-26 01:33N 39°13' W 076°32'9 9.3
2016-Jan-26 00:34N 39°07' W 076°24'8 8.5
2016-Jan-25 23:33N 38°58' W 076°24'0 0.0
2016-Jan-25 22:31N 38°58' W 076°24'0 0.0
2016-Jan-25 21:34N 38°58' W 076°24'0 0.0
2016-Jan-25 20:33N 38°58' W 076°24'0 0.0
2016-Jan-25 19:33N 38°58' W 076°24'0 0.0
2016-Jan-25 18:31N 38°58' W 076°24'0 0.0
2016-Jan-25 17:31N 38°58' W 076°24'0 0.0
2016-Jan-25 16:34N 38°58' W 076°24'0 0.0
2016-Jan-25 15:30N 38°58' W 076°24'0 0.0
2016-Jan-25 14:31N 38°58' W 076°24'0 0.0
2016-Jan-25 13:31N 38°58' W 076°24'0 0.0
2016-Jan-25 12:34N 38°58' W 076°24'0 0.0
2016-Jan-25 11:31N 38°58' W 076°24'0 0.0
2016-Jan-25 10:31N 38°58' W 076°24'0 0.0
2016-Jan-25 09:30N 38°58' W 076°24'0 0.0
2016-Jan-25 08:34N 38°58' W 076°24'6 6.1
2016-Jan-25 07:33N 39°04' W 076°20'1211.6
2016-Jan-25 06:34N 39°14' W 076°14'1211.9
2016-Jan-25 05:34N 39°23' W 076°04'1111.1
2016-Jan-25 04:33N 39°31' W 075°54'7 7.1
2016-Jan-25 03:33N 39°32' W 075°45'9 9.1
2016-Jan-25 02:33N 39°34' W 075°33'1414.5
2016-Jan-25 01:34N 39°20' W 075°26'1716.7
2016-Jan-25 00:33N 39°07' W 075°13'1616.3
2016-Jan-24 23:33N 38°52' W 075°04'8 8.1
2016-Jan-24 22:33N 38°48' W 074°56'10 9.4
2016-Jan-24 21:33N 38°48' W 074°43'11 9.3
2016-Jan-24 20:21N 38°49' W 074°29'4 5.4
2016-Jan-24 19:32N 38°51' W 074°24'2 0.5
2016-Jan-24 15:26N 38°51' W 074°26'6 4.5
2016-Jan-24 14:06N 38°47' W 074°32'1 2.3
2016-Jan-24 13:30N 38°48' W 074°31'3 2.6
2016-Jan-24 12:28N 38°50' W 074°28'5 5.6
2016-Jan-24 11:33N 38°53' W 074°23'10 9.5
2016-Jan-24 10:31N 38°60' W 074°14'28 1.4
2016-Jan-23 14:34N 39°22' W 073°51'17210.1
2016-Jan-22 21:27N 41°31' W 071°21'7 7.5
2016-Jan-22 20:33N 41°37' W 071°24'0 0.0
2016-Jan-22 16:32N 41°37' W 071°24'0 0.0
2016-Jan-22 15:32N 41°37' W 071°24'0 0.0
2016-Jan-22 14:32N 41°37' W 071°24'  
Track history (hours):
 
Tides and Currents Weather Stations Pressure Air Temp Water Temp Dewpoint Dewpoint Depression Visibility Wind Speed Wind Dir Waves Ship Positions

Grand Ruby

Last reported at 2016-Jan-27 01:34 UTC. Time now 2016-Feb-14 01:45 UTC.
Position N 38°51' W 076°24'.
Warning: this ship's position is 18 days out of date.

Length 200 m; draft 8.9 m.

Type: Cargo ship. MMSI: 372399000.

Date/timePositionNaut miles runAvg speedWind from/ knotsBaromVisibWave heightAir tempDewpointWater temp
2016-Jan-27 01:34N 38°51' W 076°24'1414.1
2016-Jan-27 00:33N 39°05' W 076°24'1111.1
2016-Jan-26 23:33N 39°14' W 076°32'1 1.1
2016-Jan-26 22:33N 39°15' W 076°32'0 0.0
2016-Jan-26 21:33N 39°15' W 076°32'0 0.0
2016-Jan-26 20:33N 39°15' W 076°32'0 0.0
2016-Jan-26 19:33N 39°15' W 076°32'0 0.0
2016-Jan-26 18:33N 39°15' W 076°32'0 0.0
2016-Jan-26 17:33N 39°15' W 076°32'0 0.0
2016-Jan-26 16:33N 39°15' W 076°32'0 0.0
2016-Jan-26 15:33N 39°15' W 076°32'0 0.0
2016-Jan-26 14:33N 39°15' W 076°32'0 0.0
2016-Jan-26 13:33N 39°15' W 076°32'0 0.0
2016-Jan-26 12:33N 39°15' W 076°32'0 0.0
2016-Jan-26 11:33N 39°15' W 076°32'0 0.0
2016-Jan-26 10:33N 39°15' W 076°32'0 0.0
2016-Jan-26 09:33N 39°15' W 076°32'0 0.0
2016-Jan-26 08:33N 39°15' W 076°32'0 0.0
2016-Jan-26 07:33N 39°15' W 076°32'0 0.0
2016-Jan-26 06:33N 39°15' W 076°32'0 0.0
2016-Jan-26 05:33N 39°15' W 076°32'0 0.0
2016-Jan-26 04:33N 39°15' W 076°32'0 0.0
2016-Jan-26 03:33N 39°15' W 076°32'0 0.0
2016-Jan-26 02:33N 39°15' W 076°32'1 1.5
2016-Jan-26 01:33N 39°13' W 076°32'9 9.3
2016-Jan-26 00:34N 39°07' W 076°24'8 8.5
2016-Jan-25 23:33N 38°58' W 076°24'0 0.0
2016-Jan-25 22:31N 38°58' W 076°24'0 0.0
2016-Jan-25 21:34N 38°58' W 076°24'0 0.0
2016-Jan-25 20:33N 38°58' W 076°24'0 0.0
2016-Jan-25 19:33N 38°58' W 076°24'0 0.0
2016-Jan-25 18:31N 38°58' W 076°24'0 0.0
2016-Jan-25 17:31N 38°58' W 076°24'0 0.0
2016-Jan-25 16:34N 38°58' W 076°24'0 0.0
2016-Jan-25 15:30N 38°58' W 076°24'0 0.0
2016-Jan-25 14:31N 38°58' W 076°24'0 0.0
2016-Jan-25 13:31N 38°58' W 076°24'0 0.0
2016-Jan-25 12:34N 38°58' W 076°24'0 0.0
2016-Jan-25 11:31N 38°58' W 076°24'0 0.0
2016-Jan-25 10:31N 38°58' W 076°24'0 0.0
2016-Jan-25 09:30N 38°58' W 076°24'0 0.0
2016-Jan-25 08:34N 38°58' W 076°24'6 6.1
2016-Jan-25 07:33N 39°04' W 076°20'1211.6
2016-Jan-25 06:34N 39°14' W 076°14'1211.9
2016-Jan-25 05:34N 39°23' W 076°04'1111.1
2016-Jan-25 04:33N 39°31' W 075°54'7 7.1
2016-Jan-25 03:33N 39°32' W 075°45'9 9.1
2016-Jan-25 02:33N 39°34' W 075°33'1414.5
2016-Jan-25 01:34N 39°20' W 075°26'1716.7
2016-Jan-25 00:33N 39°07' W 075°13'1616.3
2016-Jan-24 23:33N 38°52' W 075°04'8 8.1
2016-Jan-24 22:33N 38°48' W 074°56'10 9.4
2016-Jan-24 21:33N 38°48' W 074°43'11 9.3
2016-Jan-24 20:21N 38°49' W 074°29'4 5.4
2016-Jan-24 19:32N 38°51' W 074°24'2 0.5
2016-Jan-24 15:26N 38°51' W 074°26'6 4.5
2016-Jan-24 14:06N 38°47' W 074°32'1 2.3
2016-Jan-24 13:30N 38°48' W 074°31'3 2.6
2016-Jan-24 12:28N 38°50' W 074°28'5 5.6
2016-Jan-24 11:33N 38°53' W 074°23'10 9.5
2016-Jan-24 10:31N 38°60' W 074°14'28 1.4
2016-Jan-23 14:34N 39°22' W 073°51'17210.1
2016-Jan-22 21:27N 41°31' W 071°21'7 7.5
2016-Jan-22 20:33N 41°37' W 071°24'0 0.0
2016-Jan-22 16:32N 41°37' W 071°24'0 0.0
2016-Jan-22 15:32N 41°37' W 071°24'0 0.0
2016-Jan-22 14:32N 41°37' W 071°24'  

Dump ship's entire track history